createdAt,value
2018-09-17T00:02:12.459Z,79.60
2018-09-17T00:04:40.835Z,79.70
2018-09-17T00:07:10.115Z,79.80
2018-09-17T00:09:38.658Z,79.80
2018-09-17T00:12:07.971Z,80.20
2018-09-17T00:14:36.310Z,80.50
2018-09-17T00:17:04.606Z,80.30
2018-09-17T00:19:33.015Z,80.70
2018-09-17T00:22:01.353Z,80.70
2018-09-17T00:24:29.743Z,81.20
2018-09-17T00:26:58.021Z,81.00
2018-09-17T00:29:26.344Z,81.10
2018-09-17T00:31:54.628Z,81.20
2018-09-17T00:34:22.973Z,81.10
2018-09-17T00:36:51.274Z,81.80
2018-09-17T00:39:20.414Z,82.70
2018-09-17T00:41:48.775Z,81.80
2018-09-17T00:44:17.089Z,81.80
2018-09-17T00:46:45.434Z,81.60
2018-09-17T00:49:13.710Z,82.00
2018-09-17T00:51:42.014Z,82.00
2018-09-17T00:54:10.331Z,82.10
2018-09-17T00:56:38.771Z,82.00
2018-09-17T00:59:07.325Z,81.80
2018-09-17T01:01:35.635Z,81.70
2018-09-17T01:04:04.041Z,81.80
2018-09-17T01:06:32.342Z,81.90
2018-09-17T01:09:00.680Z,81.80
2018-09-17T01:11:28.978Z,82.00
2018-09-17T01:13:57.249Z,81.90
2018-09-17T01:16:25.545Z,82.00
2018-09-17T01:18:53.815Z,81.90
2018-09-17T01:21:22.143Z,82.00
2018-09-17T01:23:51.054Z,81.90
2018-09-17T01:26:19.354Z,82.00
2018-09-17T01:28:47.672Z,81.90
2018-09-17T01:31:15.963Z,81.90
2018-09-17T01:33:44.245Z,81.80
2018-09-17T01:36:12.523Z,81.70
2018-09-17T01:38:41.111Z,81.60
2018-09-17T01:41:09.522Z,81.80
2018-09-17T01:43:38.818Z,81.80
2018-09-17T01:46:07.535Z,81.90
2018-09-17T01:48:35.845Z,81.90
2018-09-17T01:51:04.311Z,81.90
2018-09-17T01:53:32.601Z,81.90
2018-09-17T01:56:00.899Z,82.00
2018-09-17T01:58:29.139Z,82.20
2018-09-17T02:00:58.036Z,81.60
2018-09-17T02:03:26.954Z,82.10
2018-09-17T02:05:55.247Z,82.10
2018-09-17T02:08:23.524Z,82.30
2018-09-17T02:10:51.793Z,82.30
2018-09-17T02:13:20.111Z,82.50
2018-09-17T02:15:48.419Z,82.80
2018-09-17T02:18:17.304Z,82.80
2018-09-17T02:20:45.564Z,82.70
2018-09-17T02:23:14.934Z,82.80
2018-09-17T02:25:43.226Z,82.80
2018-09-17T02:28:11.501Z,82.80
2018-09-17T02:30:40.864Z,82.50
2018-09-17T02:33:09.197Z,82.60
2018-09-17T02:35:37.559Z,82.50
2018-09-17T02:38:07.193Z,82.80
2018-09-17T02:40:35.516Z,83.60
2018-09-17T02:43:05.621Z,82.90
2018-09-17T02:45:34.891Z,83.10
2018-09-17T02:48:03.172Z,83.10
2018-09-17T02:50:31.482Z,83.40
2018-09-17T02:52:59.862Z,83.60
2018-09-17T02:55:28.161Z,83.50
2018-09-17T02:57:56.521Z,83.30
2018-09-17T03:00:24.831Z,83.30
2018-09-17T03:02:53.606Z,83.30
2018-09-17T03:05:21.910Z,83.30
2018-09-17T03:07:50.220Z,83.20
2018-09-17T03:10:18.477Z,83.20
2018-09-17T03:12:46.794Z,83.40
2018-09-17T03:15:26.644Z,83.30
2018-09-17T03:17:55.887Z,83.30
2018-09-17T03:20:24.175Z,83.50
2018-09-17T03:22:52.548Z,83.40
2018-09-17T03:25:20.844Z,83.30
2018-09-17T03:27:49.124Z,83.30
2018-09-17T03:30:17.448Z,83.40
2018-09-17T03:32:46.293Z,83.50
2018-09-17T03:35:14.566Z,84.10
2018-09-17T03:37:43.411Z,83.80
2018-09-17T03:40:11.736Z,83.60
2018-09-17T03:42:40.068Z,83.60
2018-09-17T03:45:08.390Z,83.50
2018-09-17T03:47:36.761Z,83.40
2018-09-17T03:50:05.076Z,83.50
2018-09-17T03:52:33.360Z,83.60
2018-09-17T03:55:02.779Z,83.60
2018-09-17T03:57:31.255Z,83.80
2018-09-17T03:59:59.586Z,83.40
2018-09-17T04:02:28.024Z,83.70
2018-09-17T04:04:56.280Z,83.70
2018-09-17T04:07:24.590Z,83.60
2018-09-17T04:09:54.059Z,83.70
2018-09-17T04:12:22.463Z,83.70
2018-09-17T04:14:50.747Z,83.70
2018-09-17T04:17:19.181Z,83.70
2018-09-17T04:19:47.528Z,83.60
2018-09-17T04:22:15.926Z,83.60
2018-09-17T04:24:44.197Z,83.50
2018-09-17T04:27:12.553Z,83.60
2018-09-17T04:29:40.967Z,83.70
2018-09-17T04:32:09.894Z,83.80
2018-09-17T04:34:38.182Z,83.80
2018-09-17T04:39:41.438Z,83.80
2018-09-17T04:42:09.777Z,83.90
2018-09-17T04:44:38.996Z,83.90
2018-09-17T04:47:07.365Z,83.60
2018-09-17T04:49:35.686Z,83.70
2018-09-17T04:52:04.533Z,83.80
2018-09-17T04:54:33.266Z,83.70
2018-09-17T04:57:01.614Z,83.70
2018-09-17T04:59:30.016Z,83.90
2018-09-17T05:01:58.291Z,84.10
2018-09-17T05:04:26.788Z,84.10
2018-09-17T05:06:56.151Z,84.20
2018-09-17T05:09:24.470Z,84.30
2018-09-17T05:11:52.816Z,84.00
2018-09-17T05:14:23.722Z,83.90
2018-09-17T05:16:51.998Z,84.00
2018-09-17T05:19:20.244Z,83.90
2018-09-17T05:21:49.061Z,83.90
2018-09-17T05:24:17.554Z,83.70
2018-09-17T05:26:46.001Z,84.30
2018-09-17T05:29:14.348Z,84.20
2018-09-17T05:31:42.971Z,84.20
2018-09-17T05:34:11.324Z,84.10
2018-09-17T05:36:39.682Z,84.10
2018-09-17T05:39:10.524Z,84.40
2018-09-17T05:41:38.900Z,84.30
2018-09-17T05:44:09.766Z,84.50
2018-09-17T05:46:38.110Z,84.10
2018-09-17T05:49:06.420Z,84.10
2018-09-17T05:51:35.118Z,84.10
2018-09-17T05:54:08.172Z,84.20
2018-09-17T05:56:37.100Z,84.20
2018-09-17T05:59:07.164Z,84.20
2018-09-17T06:01:35.967Z,84.30
2018-09-17T06:04:05.925Z,84.50
2018-09-17T06:06:34.223Z,84.40
2018-09-17T06:09:03.159Z,84.60
2018-09-17T06:11:31.452Z,84.60
2018-09-17T06:13:59.718Z,84.60
2018-09-17T06:16:28.050Z,85.60
2018-09-17T06:18:56.335Z,84.80
2018-09-17T06:21:24.624Z,84.90
2018-09-17T06:23:52.945Z,84.80
2018-09-17T06:26:21.348Z,84.80
2018-09-17T06:28:49.676Z,84.90
2018-09-17T06:31:17.904Z,85.20
2018-09-17T06:33:46.198Z,85.30
2018-09-17T06:36:14.728Z,85.20
2018-09-17T06:38:44.492Z,85.40
2018-09-17T06:43:49.654Z,85.80
2018-09-17T06:46:18.601Z,86.20
2018-09-17T06:48:46.985Z,85.50
2018-09-17T06:51:16.539Z,85.40
2018-09-17T06:53:45.007Z,86.30
2018-09-17T06:56:14.536Z,86.20
2018-09-17T06:58:42.891Z,86.40
2018-09-17T07:01:11.419Z,86.50
2018-09-17T07:03:40.619Z,86.30
2018-09-17T07:06:09.129Z,86.20
2018-09-17T07:08:37.611Z,86.70
2018-09-17T07:11:09.498Z,86.60
2018-09-17T07:13:38.532Z,86.60
2018-09-17T07:16:07.423Z,86.50
2018-09-17T07:18:36.707Z,86.30
2018-09-17T07:21:05.088Z,87.10
2018-09-17T07:23:33.683Z,87.10
2018-09-17T07:26:02.876Z,87.00
2018-09-17T07:28:31.189Z,87.50
2018-09-17T07:31:01.011Z,87.80
2018-09-17T07:33:30.017Z,88.10
2018-09-17T07:35:59.883Z,87.80
2018-09-17T07:38:29.052Z,88.20
2018-09-17T07:41:03.887Z,88.40
2018-09-17T07:43:33.126Z,87.80
2018-09-17T07:46:01.487Z,87.50
2018-09-17T07:48:30.308Z,87.40
2018-09-17T07:50:58.594Z,87.00
2018-09-17T07:53:26.960Z,86.90
2018-09-17T07:55:55.300Z,86.90
2018-09-17T07:58:24.588Z,86.50
2018-09-17T08:00:52.889Z,86.50
2018-09-17T08:03:21.269Z,86.60
2018-09-17T08:05:49.693Z,86.50
2018-09-17T08:08:18.442Z,86.20
2018-09-17T08:10:46.813Z,86.30
2018-09-17T08:13:16.128Z,85.80
2018-09-17T08:15:44.438Z,85.70
2018-09-17T08:18:12.848Z,85.80
2018-09-17T08:20:41.372Z,85.50
2018-09-17T08:23:09.683Z,85.20
2018-09-17T08:25:38.423Z,84.70
2018-09-17T08:28:07.199Z,84.80
2018-09-17T08:30:35.628Z,85.10
2018-09-17T08:33:04.086Z,85.60
2018-09-17T08:35:32.501Z,85.40
2018-09-17T08:38:00.886Z,85.00
2018-09-17T08:40:29.655Z,85.10
2018-09-17T08:42:58.065Z,85.00
2018-09-17T08:45:26.401Z,85.00
2018-09-17T08:47:54.704Z,85.00
2018-09-17T08:50:22.994Z,85.30
2018-09-17T08:52:51.354Z,84.90
2018-09-17T08:55:25.026Z,84.80
2018-09-17T08:57:56.314Z,85.00
2018-09-17T09:00:30.153Z,84.60
2018-09-17T09:03:03.865Z,84.50
2018-09-17T09:05:37.719Z,84.50
2018-09-17T09:08:07.491Z,84.40
2018-09-17T09:10:42.029Z,84.20
2018-09-17T09:13:14.595Z,84.20
2018-09-17T09:15:42.943Z,84.20
2018-09-17T09:18:11.339Z,83.90
2018-09-17T09:20:39.896Z,83.80
2018-09-17T09:23:08.542Z,83.40
2018-09-17T09:25:36.989Z,83.50
2018-09-17T09:28:05.447Z,83.30
2018-09-17T09:30:33.960Z,83.20
2018-09-17T09:33:02.339Z,83.40
2018-09-17T09:35:30.670Z,83.00
2018-09-17T09:37:59.731Z,82.90
2018-09-17T09:40:28.163Z,82.90
2018-09-17T09:42:57.128Z,82.50
2018-09-17T09:45:25.580Z,82.30
2018-09-17T09:47:54.049Z,82.10
2018-09-17T09:50:22.436Z,82.10
2018-09-17T09:52:50.983Z,81.30
2018-09-17T09:55:19.351Z,82.00
2018-09-17T09:57:47.710Z,81.10
2018-09-17T10:00:23.036Z,81.20
2018-09-17T10:02:56.744Z,81.30
2018-09-17T10:05:25.357Z,81.20
2018-09-17T10:07:53.920Z,80.30
2018-09-17T10:10:28.624Z,80.90
2018-09-17T10:13:03.415Z,80.40
2018-09-17T10:15:40.082Z,79.90
2018-09-17T10:18:13.965Z,78.80
2018-09-17T10:20:42.496Z,79.00
2018-09-17T10:23:11.026Z,79.50
2018-09-17T10:25:39.543Z,78.90
2018-09-17T10:28:09.068Z,79.00
2018-09-17T10:30:39.218Z,79.00
2018-09-17T10:33:08.035Z,78.00
2018-09-17T10:35:38.863Z,77.00
2018-09-17T10:38:08.406Z,78.70
2018-09-17T10:40:38.095Z,78.60
2018-09-17T10:43:08.218Z,77.80
2018-09-17T10:45:37.351Z,77.80
2018-09-17T10:48:07.375Z,77.40
2018-09-17T10:50:35.919Z,76.30
2018-09-17T10:53:04.534Z,75.40
2018-09-17T10:55:34.904Z,75.40
2018-09-17T10:58:04.228Z,74.50
2018-09-17T11:00:32.822Z,73.60
2018-09-17T11:03:01.568Z,73.50
2018-09-17T11:05:30.189Z,70.10
2018-09-17T11:08:05.586Z,72.30
2018-09-17T11:10:34.855Z,72.40
2018-09-17T11:13:04.524Z,71.70
2018-09-17T11:15:39.251Z,72.40
2018-09-17T11:18:07.943Z,72.90
2018-09-17T11:20:37.442Z,72.40
2018-09-17T11:23:06.773Z,71.80
2018-09-17T11:25:35.699Z,72.10
2018-09-17T11:28:04.950Z,71.50
2018-09-17T11:30:34.060Z,69.70
2018-09-17T11:33:03.451Z,70.90
2018-09-17T11:35:31.939Z,71.00
2018-09-17T11:38:01.163Z,70.60
2018-09-17T11:40:29.799Z,70.30
2018-09-17T11:43:00.082Z,68.80
2018-09-17T11:45:28.589Z,69.90
2018-09-17T11:47:57.405Z,69.30
2018-09-17T11:50:26.054Z,69.00
2018-09-17T11:52:54.686Z,68.70
2018-09-17T11:55:23.118Z,68.60
2018-09-17T11:57:51.536Z,67.70
2018-09-17T12:00:25.434Z,67.60
2018-09-17T12:02:59.187Z,67.10
2018-09-17T12:05:32.899Z,67.10
2018-09-17T12:08:01.351Z,68.50
2018-09-17T12:10:29.777Z,67.50
2018-09-17T12:12:58.103Z,67.00
2018-09-17T12:15:26.470Z,67.90
2018-09-17T12:17:54.812Z,67.70
2018-09-17T12:20:23.228Z,68.40
2018-09-17T12:22:51.726Z,66.00
2018-09-17T12:25:20.050Z,66.90
2018-09-17T12:27:48.471Z,65.60
2018-09-17T12:30:16.843Z,65.10
2018-09-17T12:32:45.197Z,66.10
2018-09-17T12:35:14.351Z,64.50
2018-09-17T12:37:42.724Z,64.30
2018-09-17T12:40:11.803Z,64.60
2018-09-17T12:42:40.362Z,64.00
2018-09-17T12:45:09.387Z,64.20
2018-09-17T12:47:37.927Z,63.90
2018-09-17T12:50:07.133Z,63.70
2018-09-17T12:52:42.466Z,63.00
2018-09-17T12:55:11.490Z,64.30
2018-09-17T12:57:46.783Z,63.90
2018-09-17T13:00:19.659Z,63.20
2018-09-17T13:02:48.243Z,62.60
2018-09-17T13:05:17.328Z,63.10
2018-09-17T13:07:46.099Z,63.60
2018-09-17T13:10:14.495Z,64.30
2018-09-17T13:12:42.893Z,62.10
2018-09-17T13:15:11.234Z,62.40
2018-09-17T13:17:39.896Z,62.40
2018-09-17T13:20:09.319Z,61.60
2018-09-17T13:22:37.897Z,61.90
2018-09-17T13:25:06.465Z,61.80
2018-09-17T13:27:35.013Z,61.50
2018-09-17T13:30:03.596Z,61.50
2018-09-17T13:35:02.564Z,60.80
2018-09-17T13:37:31.004Z,61.50
2018-09-17T13:40:00.146Z,62.10
2018-09-17T13:42:28.590Z,62.30
2018-09-17T13:44:57.354Z,62.50
2018-09-17T13:47:25.766Z,62.80
2018-09-17T13:49:54.982Z,62.70
2018-09-17T13:52:23.379Z,62.40
2018-09-17T13:54:51.898Z,62.80
2018-09-17T13:57:20.255Z,63.30
2018-09-17T13:59:48.923Z,62.40
2018-09-17T14:02:17.226Z,61.90
2018-09-17T14:04:48.836Z,62.60
2018-09-17T14:07:17.596Z,61.80
2018-09-17T14:09:48.207Z,62.10
2018-09-17T14:12:17.192Z,62.50
2018-09-17T14:14:45.586Z,62.90
2018-09-17T14:17:17.749Z,63.00
2018-09-17T14:19:46.089Z,63.30
2018-09-17T14:22:15.030Z,63.20
2018-09-17T14:24:43.362Z,63.30
2018-09-17T14:27:13.153Z,63.30
2018-09-17T14:29:42.280Z,63.40
2018-09-17T14:33:13.957Z,63.50
2018-09-17T14:35:42.488Z,63.00
2018-09-17T14:38:10.896Z,62.40
2018-09-17T14:40:39.220Z,63.10
2018-09-17T14:43:09.090Z,62.50
2018-09-17T14:45:37.911Z,63.00
2018-09-17T14:48:08.040Z,63.80
2018-09-17T14:50:36.804Z,61.10
2018-09-17T14:53:06.612Z,63.00
2018-09-17T14:55:35.096Z,63.30
2018-09-17T14:58:04.895Z,62.30
2018-09-17T15:00:33.920Z,62.70
2018-09-17T15:03:02.580Z,63.30
2018-09-17T15:05:32.905Z,62.90
2018-09-17T15:08:01.785Z,62.40
2018-09-17T15:10:30.203Z,62.80
2018-09-17T15:12:59.609Z,62.20
2018-09-17T15:15:30.764Z,61.70
2018-09-17T15:17:59.976Z,61.30
2018-09-17T15:20:32.101Z,61.80
2018-09-17T15:23:11.749Z,61.20
2018-09-17T15:25:42.565Z,60.20
2018-09-17T15:28:16.523Z,61.20
2018-09-17T15:30:50.834Z,60.90
2018-09-17T15:33:23.704Z,61.10
2018-09-17T15:35:57.518Z,60.90
2018-09-17T15:38:26.888Z,61.60
2018-09-17T15:40:56.972Z,62.10
2018-09-17T15:43:25.439Z,60.50
2018-09-17T15:45:53.921Z,61.60
2018-09-17T15:48:23.446Z,59.00
2018-09-17T15:50:51.962Z,58.60
2018-09-17T15:53:20.810Z,58.50
2018-09-17T15:55:49.362Z,58.10
2018-09-17T15:58:17.895Z,59.70
2018-09-17T16:00:46.427Z,60.30
2018-09-17T16:03:14.839Z,60.30
2018-09-17T16:05:43.291Z,60.60
2018-09-17T16:08:11.776Z,60.80
2018-09-17T16:10:40.263Z,60.00
2018-09-17T16:13:08.693Z,60.60
2018-09-17T16:15:37.163Z,61.00
2018-09-17T16:18:05.648Z,61.60
2018-09-17T16:20:34.997Z,61.10
2018-09-17T16:23:03.394Z,60.90
2018-09-17T16:25:31.750Z,60.70
2018-09-17T16:28:00.532Z,60.80
2018-09-17T16:30:29.768Z,61.30
2018-09-17T16:32:59.618Z,61.90
2018-09-17T16:35:28.092Z,61.90
2018-09-17T16:38:00.533Z,61.80
2018-09-17T16:40:34.344Z,62.00
2018-09-17T16:43:03.087Z,62.10
2018-09-17T16:45:31.668Z,62.30
2018-09-17T16:48:03.338Z,62.50
2018-09-17T16:50:33.706Z,62.60
2018-09-17T16:53:02.215Z,62.80
2018-09-17T16:55:31.162Z,63.10
2018-09-17T16:58:03.061Z,63.10
2018-09-17T17:00:34.567Z,63.50
2018-09-17T17:03:08.784Z,63.70
2018-09-17T17:05:37.166Z,64.00
2018-09-17T17:08:06.702Z,64.20
2018-09-17T17:10:37.421Z,64.50
2018-09-17T17:13:07.558Z,64.60
2018-09-17T17:15:38.941Z,65.60
2018-09-17T17:18:08.071Z,64.80
2018-09-17T17:20:37.481Z,64.70
2018-09-17T17:23:06.072Z,64.70
2018-09-17T17:25:34.687Z,64.70
2018-09-17T17:28:04.770Z,64.60
2018-09-17T17:30:33.466Z,64.80
2018-09-17T17:33:02.066Z,64.70
2018-09-17T17:35:30.460Z,64.80
2018-09-17T17:37:59.037Z,65.00
2018-09-17T17:40:28.024Z,64.90
2018-09-17T17:42:56.261Z,65.10
2018-09-17T17:45:24.865Z,65.20
2018-09-17T17:47:53.229Z,65.70
2018-09-17T17:50:21.668Z,65.30
2018-09-17T17:52:54.552Z,64.60
2018-09-17T17:55:23.223Z,65.40
2018-09-17T17:57:52.046Z,65.50
2018-09-17T18:00:20.631Z,65.40
2018-09-17T18:02:49.104Z,65.80
2018-09-17T18:05:17.517Z,65.90
2018-09-17T18:07:45.877Z,65.90
2018-09-17T18:10:14.899Z,65.50
2018-09-17T18:12:43.516Z,66.50
2018-09-17T18:15:12.082Z,66.30
2018-09-17T18:17:46.646Z,66.40
2018-09-17T18:20:15.015Z,66.50
2018-09-17T18:22:44.065Z,66.30
2018-09-17T18:25:18.539Z,66.40
2018-09-17T18:27:47.579Z,66.30
2018-09-17T18:30:16.514Z,66.50
2018-09-17T18:32:46.453Z,66.50
2018-09-17T18:35:14.811Z,66.60
2018-09-17T18:37:43.361Z,66.90
2018-09-17T18:40:13.070Z,66.90
2018-09-17T18:42:42.707Z,67.20
2018-09-17T18:45:11.095Z,67.10
2018-09-17T18:47:51.136Z,68.10
2018-09-17T18:50:21.396Z,67.10
2018-09-17T18:52:50.603Z,67.20
2018-09-17T18:55:18.951Z,67.30
2018-09-17T18:57:47.259Z,67.60
2018-09-17T19:00:15.660Z,67.70
2018-09-17T19:02:44.807Z,67.70
2018-09-17T19:05:13.056Z,67.80
2018-09-17T19:07:41.430Z,67.90
2018-09-17T19:10:09.829Z,68.10
2018-09-17T19:12:40.071Z,68.20
2018-09-17T19:15:14.271Z,68.20
2018-09-17T19:17:43.460Z,68.40
2018-09-17T19:20:12.535Z,68.40
2018-09-17T19:22:46.697Z,68.50
2018-09-17T19:25:16.258Z,68.50
2018-09-17T19:27:50.021Z,68.60
2018-09-17T19:30:18.419Z,68.60
2018-09-17T19:32:47.021Z,68.60
2018-09-17T19:35:15.478Z,68.70
2018-09-17T19:37:50.673Z,69.00
2018-09-17T19:40:20.383Z,68.90
2018-09-17T19:42:49.526Z,69.00
2018-09-17T19:45:23.923Z,69.10
2018-09-17T19:47:52.899Z,69.20
2018-09-17T19:50:27.115Z,69.50
2018-09-17T19:52:55.549Z,69.50
2018-09-17T19:55:24.963Z,69.60
2018-09-17T19:57:58.515Z,69.50
2018-09-17T20:00:27.676Z,69.40
2018-09-17T20:02:56.011Z,69.50
2018-09-17T20:05:29.551Z,70.30
2018-09-17T20:07:57.865Z,69.90
2018-09-17T20:10:26.207Z,70.00
2018-09-17T20:12:55.792Z,69.90
2018-09-17T20:15:24.310Z,69.80
2018-09-17T20:17:52.790Z,69.90
2018-09-17T20:20:21.480Z,69.80
2018-09-17T20:22:49.769Z,69.80
2018-09-17T20:25:18.000Z,69.80
2018-09-17T20:27:46.265Z,70.00
2018-09-17T20:30:15.405Z,70.30
2018-09-17T20:32:46.531Z,70.50
2018-09-17T20:35:16.043Z,70.40
2018-09-17T20:37:45.104Z,70.20
2018-09-17T20:40:13.467Z,70.30
2018-09-17T20:42:41.790Z,70.30
2018-09-17T20:45:10.722Z,70.30
2018-09-17T20:47:39.050Z,70.50
2018-09-17T20:50:07.950Z,70.40
2018-09-17T20:52:36.251Z,70.70
2018-09-17T20:55:04.759Z,70.70
2018-09-17T20:57:33.056Z,70.50
2018-09-17T21:00:01.361Z,70.50
2018-09-17T21:02:29.678Z,70.50
2018-09-17T21:04:57.926Z,70.70
2018-09-17T21:07:26.279Z,70.70
2018-09-17T21:09:54.530Z,70.60
2018-09-17T21:12:22.861Z,70.60
2018-09-17T21:14:51.111Z,70.50
2018-09-17T21:17:19.385Z,70.60
2018-09-17T21:19:47.687Z,70.50
2018-09-17T21:22:16.010Z,70.50
2018-09-17T21:24:44.361Z,70.30
2018-09-17T21:27:12.636Z,70.50
2018-09-17T21:29:40.907Z,70.60
2018-09-17T21:32:09.960Z,70.70
2018-09-17T21:34:38.244Z,70.80
2018-09-17T21:37:06.599Z,70.90
2018-09-17T21:39:35.174Z,71.00
2018-09-17T21:42:03.492Z,70.90
2018-09-17T21:44:31.775Z,71.00
2018-09-17T21:47:01.325Z,71.40
2018-09-17T21:49:29.597Z,71.20
2018-09-17T21:51:57.880Z,71.30
2018-09-17T21:54:26.152Z,71.10
2018-09-17T21:56:54.454Z,71.20
2018-09-17T21:59:22.749Z,71.40
2018-09-17T22:01:51.111Z,71.50
2018-09-17T22:04:19.471Z,71.70
2018-09-17T22:06:47.699Z,71.90
2018-09-17T22:09:16.049Z,71.90
2018-09-17T22:11:44.380Z,71.80
2018-09-17T22:14:12.654Z,71.90
2018-09-17T22:16:40.958Z,71.80
2018-09-17T22:19:09.228Z,72.00
2018-09-17T22:21:37.558Z,72.00
2018-09-17T22:24:05.875Z,71.90
2018-09-17T22:26:34.163Z,72.30
2018-09-17T22:29:02.453Z,72.10
2018-09-17T22:31:30.747Z,72.10
2018-09-17T22:33:59.732Z,73.00
2018-09-17T22:36:27.984Z,72.20
2018-09-17T22:38:56.540Z,72.20
2018-09-17T22:41:24.839Z,72.20
2018-09-17T22:43:53.114Z,72.60
2018-09-17T22:46:21.409Z,72.50
2018-09-17T22:48:49.672Z,72.50
2018-09-17T22:51:18.077Z,72.50
2018-09-17T22:53:46.340Z,72.50
2018-09-17T22:56:14.641Z,72.40
2018-09-17T22:58:43.121Z,72.50
2018-09-17T23:01:11.383Z,72.70
2018-09-17T23:03:39.640Z,72.80
2018-09-17T23:06:08.186Z,72.80
2018-09-17T23:08:36.996Z,72.70
2018-09-17T23:11:05.360Z,72.90
2018-09-17T23:13:33.658Z,73.10
2018-09-17T23:16:02.859Z,73.90
2018-09-17T23:18:31.143Z,72.80
2018-09-17T23:20:59.427Z,73.00
2018-09-17T23:23:28.095Z,72.90
2018-09-17T23:25:56.414Z,73.80
2018-09-17T23:28:24.681Z,72.90
2018-09-17T23:30:53.340Z,72.90
2018-09-17T23:33:21.612Z,72.90
2018-09-17T23:35:49.879Z,73.40
2018-09-17T23:38:18.200Z,72.60
2018-09-17T23:40:46.482Z,72.90
2018-09-17T23:43:14.772Z,72.60
2018-09-17T23:45:43.082Z,73.40
2018-09-17T23:48:11.353Z,72.60
2018-09-17T23:50:39.650Z,72.40
2018-09-17T23:53:08.659Z,72.40
2018-09-17T23:55:36.948Z,72.60
2018-09-17T23:58:05.211Z,72.70
